createdAt,value
2019-03-24T00:00:29.827Z,100.50
2019-03-24T00:01:40.450Z,96.70
2019-03-24T00:02:30.189Z,103.40
2019-03-24T00:03:30.469Z,105.60
2019-03-24T00:04:30.530Z,105.90
2019-03-24T00:05:30.706Z,112.20
2019-03-24T00:06:30.895Z,105.60
2019-03-24T00:07:31.086Z,101.50
2019-03-24T00:08:31.272Z,108.30
2019-03-24T00:09:31.453Z,111.30
2019-03-24T00:10:31.635Z,105.90
2019-03-24T00:11:31.826Z,104.70
2019-03-24T00:12:32.010Z,109.50
2019-03-24T00:13:32.195Z,107.50
2019-03-24T00:14:32.379Z,109.80
2019-03-24T00:15:32.564Z,105.00
2019-03-24T00:16:32.747Z,117.50
2019-03-24T00:17:32.931Z,116.60
2019-03-24T00:18:33.116Z,109.50
2019-03-24T00:19:33.317Z,108.20
2019-03-24T00:20:33.507Z,110.90
2019-03-24T00:21:33.686Z,118.40
2019-03-24T00:22:33.863Z,99.40
2019-03-24T00:23:34.045Z,112.20
2019-03-24T00:24:34.237Z,110.00
2019-03-24T00:25:34.421Z,102.30
2019-03-24T00:26:34.605Z,103.60
2019-03-24T00:27:34.779Z,104.20
2019-03-24T00:28:34.964Z,108.70
2019-03-24T00:29:35.139Z,109.10
2019-03-24T00:30:35.321Z,105.90
2019-03-24T00:31:35.503Z,100.70
2019-03-24T00:32:35.718Z,94.10
2019-03-24T00:33:35.879Z,97.40
2019-03-24T00:34:36.060Z,104.00
2019-03-24T00:35:36.243Z,98.90
2019-03-24T00:36:36.422Z,109.80
2019-03-24T00:37:36.614Z,112.00
2019-03-24T00:38:36.795Z,114.30
2019-03-24T00:39:36.978Z,105.90
2019-03-24T00:40:37.157Z,107.40
2019-03-24T00:41:37.346Z,108.10
2019-03-24T00:42:37.535Z,121.30
2019-03-24T00:43:37.722Z,107.60
2019-03-24T00:44:37.904Z,113.70
2019-03-24T00:45:38.090Z,106.90
2019-03-24T00:46:38.275Z,116.40
2019-03-24T00:47:38.458Z,101.90
2019-03-24T00:48:38.642Z,110.30
2019-03-24T00:49:38.833Z,109.70
2019-03-24T00:50:39.008Z,119.70
2019-03-24T00:51:39.188Z,114.90
2019-03-24T00:52:39.374Z,113.00
2019-03-24T00:53:39.556Z,110.50
2019-03-24T00:54:39.744Z,117.70
2019-03-24T00:55:39.925Z,117.20
2019-03-24T00:56:40.109Z,122.40
2019-03-24T00:57:40.292Z,118.40
2019-03-24T00:58:40.466Z,117.10
2019-03-24T00:59:40.653Z,116.30
2019-03-24T01:00:40.838Z,127.70
2019-03-24T01:01:41.016Z,129.60
2019-03-24T01:02:41.211Z,133.10
2019-03-24T01:03:41.388Z,137.70
2019-03-24T01:04:41.578Z,129.40
2019-03-24T01:05:41.757Z,127.00
2019-03-24T01:06:41.957Z,118.40
2019-03-24T01:07:42.123Z,134.20
2019-03-24T01:08:42.304Z,123.90
2019-03-24T01:09:42.486Z,121.30
2019-03-24T01:10:42.668Z,119.30
2019-03-24T01:11:42.862Z,119.30
2019-03-24T01:12:43.049Z,116.90
2019-03-24T01:13:43.232Z,127.30
2019-03-24T01:14:43.415Z,121.00
2019-03-24T01:15:48.019Z,132.40
2019-03-24T01:16:43.779Z,128.00
2019-03-24T01:17:43.956Z,117.70
2019-03-24T01:18:44.145Z,118.00
2019-03-24T01:19:44.343Z,125.30
2019-03-24T01:20:44.531Z,120.40
2019-03-24T01:21:44.702Z,122.70
2019-03-24T01:22:44.881Z,115.80
2019-03-24T01:23:45.068Z,116.00
2019-03-24T01:24:45.252Z,118.20
2019-03-24T01:25:45.445Z,108.50
2019-03-24T01:26:45.636Z,108.40
2019-03-24T01:27:45.824Z,112.30
2019-03-24T01:28:46.002Z,117.00
2019-03-24T01:29:46.196Z,111.40
2019-03-24T01:30:46.381Z,119.80
2019-03-24T01:31:46.568Z,114.00
2019-03-24T01:32:46.752Z,112.60
2019-03-24T01:33:46.934Z,111.80
2019-03-24T01:37:30.484Z,119.30
2019-03-24T01:38:30.667Z,114.10
2019-03-24T01:39:30.862Z,112.60
2019-03-24T01:40:31.030Z,111.60
2019-03-24T01:41:31.209Z,118.10
2019-03-24T01:42:31.392Z,120.80
2019-03-24T01:43:31.571Z,117.40
2019-03-24T01:44:31.750Z,115.90
2019-03-24T01:45:31.932Z,131.80
2019-03-24T01:46:32.109Z,128.30
2019-03-24T01:47:32.296Z,138.80
2019-03-24T01:48:32.477Z,126.10
2019-03-24T01:49:32.667Z,130.30
2019-03-24T01:50:32.843Z,128.10
2019-03-24T01:51:33.028Z,133.30
2019-03-24T01:52:33.209Z,131.10
2019-03-24T01:53:33.389Z,125.30
2019-03-24T01:54:33.571Z,134.30
2019-03-24T01:55:33.748Z,130.60
2019-03-24T01:56:33.941Z,131.00
2019-03-24T01:57:34.132Z,125.70
2019-03-24T01:58:34.313Z,123.40
2019-03-24T01:59:34.503Z,131.20
2019-03-24T02:00:34.695Z,124.00
2019-03-24T02:01:34.871Z,124.90
2019-03-24T02:02:35.052Z,122.00
2019-03-24T02:03:35.233Z,126.60
2019-03-24T02:04:35.415Z,115.60
2019-03-24T02:05:35.594Z,119.70
2019-03-24T02:06:35.783Z,128.00
2019-03-24T02:07:35.961Z,122.80
2019-03-24T02:08:36.145Z,119.40
2019-03-24T02:09:36.333Z,111.70
2019-03-24T02:10:36.521Z,120.40
2019-03-24T02:11:36.701Z,118.70
2019-03-24T02:12:36.885Z,123.00
2019-03-24T02:13:37.067Z,131.90
2019-03-24T02:14:37.255Z,111.50
2019-03-24T02:15:37.425Z,102.90
2019-03-24T02:16:37.623Z,114.50
2019-03-24T02:17:37.801Z,116.10
2019-03-24T02:18:37.981Z,122.20
2019-03-24T02:19:38.157Z,109.00
2019-03-24T02:20:38.339Z,115.90
2019-03-24T02:21:38.524Z,109.50
2019-03-24T02:22:38.720Z,109.40
2019-03-24T02:23:38.902Z,100.90
2019-03-24T02:24:39.084Z,103.70
2019-03-24T02:25:39.267Z,107.20
2019-03-24T02:26:39.457Z,105.30
2019-03-24T02:27:39.629Z,113.70
2019-03-24T02:28:39.815Z,98.90
2019-03-24T02:29:39.999Z,90.60
2019-03-24T02:30:40.172Z,95.00
2019-03-24T02:31:40.364Z,104.80
2019-03-24T02:32:40.554Z,97.60
2019-03-24T02:33:40.747Z,100.80
2019-03-24T02:34:40.920Z,101.70
2019-03-24T02:35:41.109Z,102.30
2019-03-24T02:36:41.294Z,95.80
2019-03-24T02:37:41.477Z,96.80
2019-03-24T02:38:41.659Z,97.60
2019-03-24T02:39:41.845Z,101.60
2019-03-24T02:40:42.023Z,98.20
2019-03-24T02:41:42.200Z,99.00
2019-03-24T02:42:42.386Z,98.90
2019-03-24T02:43:42.568Z,95.50
2019-03-24T02:44:42.746Z,99.10
2019-03-24T02:45:42.926Z,98.00
2019-03-24T02:46:43.110Z,97.00
2019-03-24T02:47:43.291Z,93.30
2019-03-24T02:48:43.471Z,94.20
2019-03-24T02:49:43.656Z,93.30
2019-03-24T02:50:43.841Z,90.40
2019-03-24T02:51:44.015Z,92.40
2019-03-24T02:52:44.200Z,91.30
2019-03-24T02:53:44.383Z,91.40
2019-03-24T02:54:44.569Z,97.00
2019-03-24T02:55:44.745Z,90.00
2019-03-24T02:56:44.924Z,93.40
2019-03-24T02:57:45.103Z,96.00
2019-03-24T02:58:45.288Z,90.10
2019-03-24T02:59:45.473Z,86.90
2019-03-24T03:00:45.650Z,85.00
2019-03-24T03:01:45.834Z,86.70
2019-03-24T03:02:46.015Z,92.30
2019-03-24T03:03:46.192Z,94.00
2019-03-24T03:04:46.385Z,92.80
2019-03-24T03:05:46.565Z,86.50
2019-03-24T03:06:46.749Z,88.60
2019-03-24T03:07:46.932Z,89.80
2019-03-24T03:08:47.127Z,88.20
2019-03-24T03:09:47.306Z,92.10
2019-03-24T03:10:47.473Z,101.80
2019-03-24T03:11:47.672Z,97.80
2019-03-24T03:12:47.955Z,90.50
2019-03-24T03:13:48.043Z,90.30
2019-03-24T03:14:48.225Z,86.30
2019-03-24T03:15:48.409Z,93.50
2019-03-24T03:16:48.600Z,88.20
2019-03-24T03:17:48.781Z,91.50
2019-03-24T03:18:48.965Z,87.40
2019-03-24T03:19:49.153Z,94.00
2019-03-24T03:20:49.329Z,86.00
2019-03-24T03:21:49.516Z,83.80
2019-03-24T03:22:49.695Z,96.60
2019-03-24T03:23:49.877Z,84.20
2019-03-24T03:24:50.060Z,87.70
2019-03-24T03:25:50.241Z,83.70
2019-03-24T03:26:50.423Z,88.80
2019-03-24T03:27:50.608Z,76.40
2019-03-24T03:28:50.840Z,81.90
2019-03-24T03:29:50.976Z,90.00
2019-03-24T03:30:51.164Z,83.70
2019-03-24T03:31:51.342Z,87.40
2019-03-24T03:32:51.558Z,87.50
2019-03-24T03:33:51.735Z,85.90
2019-03-24T03:34:51.904Z,86.30
2019-03-24T03:35:52.094Z,85.80
2019-03-24T03:36:52.259Z,88.40
2019-03-24T03:37:52.446Z,88.30
2019-03-24T03:38:52.624Z,88.50
2019-03-24T03:39:57.399Z,86.00
2019-03-24T03:40:52.995Z,100.60
2019-03-24T03:41:53.165Z,79.40
2019-03-24T03:42:53.363Z,81.90
2019-03-24T03:43:53.536Z,87.80
2019-03-24T03:44:53.718Z,94.20
2019-03-24T03:45:53.897Z,79.00
2019-03-24T03:46:54.082Z,86.50
2019-03-24T03:47:54.270Z,88.00
2019-03-24T03:48:54.463Z,90.20
2019-03-24T03:49:54.629Z,90.00
2019-03-24T03:50:54.811Z,89.20
2019-03-24T03:51:55.019Z,89.90
2019-03-24T03:52:55.182Z,86.50
2019-03-24T03:53:55.367Z,95.50
2019-03-24T03:54:55.552Z,88.00
2019-03-24T03:55:55.734Z,89.60
2019-03-24T03:56:55.918Z,85.70
2019-03-24T03:57:56.106Z,86.30
2019-03-24T03:58:56.297Z,84.20
2019-03-24T03:59:56.479Z,83.80
2019-03-24T04:00:56.660Z,86.00
2019-03-24T04:01:56.850Z,91.60
2019-03-24T04:02:57.038Z,91.70
2019-03-24T04:03:57.213Z,87.60
2019-03-24T04:04:57.410Z,84.30
2019-03-24T04:05:57.580Z,89.40
2019-03-24T04:06:57.759Z,91.00
2019-03-24T04:07:57.943Z,93.90
2019-03-24T04:08:58.122Z,90.50
2019-03-24T04:09:58.313Z,88.90
2019-03-24T04:10:58.489Z,95.70
2019-03-24T04:11:58.677Z,94.20
2019-03-24T04:12:58.857Z,89.00
2019-03-24T04:13:59.043Z,86.50
2019-03-24T04:14:59.232Z,86.80
2019-03-24T04:15:59.415Z,94.50
2019-03-24T04:17:07.258Z,97.20
2019-03-24T04:17:59.790Z,91.70
2019-03-24T04:18:59.957Z,88.60
2019-03-24T04:20:00.478Z,85.40
2019-03-24T04:21:00.323Z,87.50
2019-03-24T04:22:00.508Z,90.10
2019-03-24T04:23:00.712Z,84.30
2019-03-24T04:24:00.872Z,89.50
2019-03-24T04:25:01.061Z,89.20
2019-03-24T04:26:01.251Z,82.40
2019-03-24T04:27:01.429Z,92.50
2019-03-24T04:28:01.615Z,87.60
2019-03-24T04:29:01.800Z,82.20
2019-03-24T04:30:02.011Z,93.20
2019-03-24T04:31:02.168Z,92.10
2019-03-24T04:32:02.364Z,91.10
2019-03-24T04:33:02.530Z,87.90
2019-03-24T04:34:02.719Z,91.70
2019-03-24T04:35:02.905Z,95.70
2019-03-24T04:36:03.084Z,93.40
2019-03-24T04:37:03.276Z,92.00
2019-03-24T04:38:03.455Z,96.10
2019-03-24T04:39:03.672Z,86.70
2019-03-24T04:40:03.823Z,91.70
2019-03-24T04:41:04.003Z,85.00
2019-03-24T04:42:04.188Z,87.60
2019-03-24T04:43:04.374Z,92.90
2019-03-24T04:44:04.551Z,89.60
2019-03-24T04:45:04.736Z,88.20
2019-03-24T04:46:04.935Z,93.80
2019-03-24T04:47:05.124Z,91.10
2019-03-24T04:48:05.295Z,90.60
2019-03-24T04:49:05.480Z,89.90
2019-03-24T04:50:05.663Z,96.30
2019-03-24T04:51:05.845Z,90.80
2019-03-24T04:52:06.027Z,89.30
2019-03-24T04:53:06.213Z,88.50
2019-03-24T04:54:06.391Z,92.30
2019-03-24T04:55:06.581Z,91.50
2019-03-24T04:56:06.778Z,86.00
2019-03-24T04:57:06.966Z,93.60
2019-03-24T04:58:07.143Z,93.50
2019-03-24T04:59:07.325Z,88.00
2019-03-24T05:00:07.513Z,93.20
2019-03-24T05:01:07.699Z,90.50
2019-03-24T05:02:07.886Z,98.20
2019-03-24T05:03:08.067Z,86.90
2019-03-24T05:04:08.250Z,90.80
2019-03-24T05:05:08.434Z,92.90
2019-03-24T05:06:08.613Z,85.60
2019-03-24T05:07:08.799Z,87.00
2019-03-24T05:08:08.982Z,99.50
2019-03-24T05:09:09.185Z,90.80
2019-03-24T05:10:09.367Z,88.10
2019-03-24T05:11:09.552Z,85.20
2019-03-24T05:12:09.730Z,86.80
2019-03-24T05:13:09.913Z,84.30
2019-03-24T05:14:10.104Z,77.10
2019-03-24T05:15:10.281Z,81.40
2019-03-24T05:16:10.462Z,85.40
2019-03-24T05:17:10.651Z,83.80
2019-03-24T05:18:10.832Z,85.10
2019-03-24T05:19:11.024Z,81.80
2019-03-24T05:20:11.205Z,86.00
2019-03-24T05:21:11.400Z,82.90
2019-03-24T05:22:11.574Z,86.70
2019-03-24T05:23:11.754Z,84.70
2019-03-24T05:24:11.938Z,84.40
2019-03-24T05:25:12.121Z,86.60
2019-03-24T05:26:12.314Z,87.40
2019-03-24T05:27:12.502Z,74.90
2019-03-24T05:28:12.680Z,85.20
2019-03-24T05:29:12.867Z,83.80
2019-03-24T05:30:13.047Z,79.70
2019-03-24T05:31:13.232Z,83.90
2019-03-24T05:32:13.418Z,87.90
2019-03-24T05:33:13.611Z,85.70
2019-03-24T05:34:13.780Z,79.80
2019-03-24T05:35:13.965Z,85.50
2019-03-24T05:36:14.142Z,88.80
2019-03-24T05:37:14.328Z,88.10
2019-03-24T05:38:14.522Z,90.20
2019-03-24T05:39:14.715Z,88.20
2019-03-24T05:40:14.888Z,87.10
2019-03-24T05:41:15.074Z,87.80
2019-03-24T05:42:15.253Z,89.90
2019-03-24T05:43:15.443Z,85.70
2019-03-24T05:44:15.625Z,90.10
2019-03-24T05:45:15.809Z,84.00
2019-03-24T05:46:15.993Z,89.70
2019-03-24T05:47:16.177Z,83.40
2019-03-24T05:48:16.361Z,79.70
2019-03-24T05:49:16.542Z,83.80
2019-03-24T05:50:16.731Z,85.30
2019-03-24T05:51:16.916Z,76.00
2019-03-24T05:52:17.113Z,71.80
2019-03-24T05:53:17.296Z,83.40
2019-03-24T05:54:17.486Z,72.50
2019-03-24T05:55:17.665Z,81.00
2019-03-24T05:56:17.847Z,74.00
2019-03-24T05:57:18.059Z,75.00
2019-03-24T05:58:18.275Z,75.00
2019-03-24T05:59:18.464Z,75.10
2019-03-24T06:00:18.643Z,81.80
2019-03-24T06:01:18.826Z,72.90
2019-03-24T06:02:19.013Z,80.60
2019-03-24T06:03:19.191Z,78.70
2019-03-24T06:04:19.378Z,79.00
2019-03-24T06:05:19.561Z,78.90
2019-03-24T06:06:19.745Z,78.20
2019-03-24T06:07:19.930Z,76.40
2019-03-24T06:08:20.128Z,81.00
2019-03-24T06:09:20.302Z,85.50
2019-03-24T06:10:20.500Z,71.90
2019-03-24T06:11:20.671Z,77.50
2019-03-24T06:12:20.852Z,81.60
2019-03-24T06:13:21.042Z,72.80
2019-03-24T06:14:21.229Z,82.50
2019-03-24T06:15:21.422Z,76.30
2019-03-24T06:16:21.601Z,77.40
2019-03-24T06:17:21.782Z,83.10
2019-03-24T06:18:21.972Z,75.50
2019-03-24T06:19:22.162Z,79.00
2019-03-24T06:20:22.339Z,78.30
2019-03-24T06:21:22.533Z,73.70
2019-03-24T06:22:22.722Z,76.50
2019-03-24T06:23:22.902Z,75.20
2019-03-24T06:24:23.078Z,75.00
2019-03-24T06:25:23.266Z,70.80
2019-03-24T06:26:23.449Z,70.60
2019-03-24T06:27:23.640Z,71.40
2019-03-24T06:28:23.825Z,69.70
2019-03-24T06:29:24.013Z,70.00
2019-03-24T06:30:24.201Z,79.60
2019-03-24T06:31:24.382Z,72.40
2019-03-24T06:32:24.573Z,75.50
2019-03-24T06:33:24.755Z,71.10
2019-03-24T06:34:24.944Z,71.80
2019-03-24T06:35:25.117Z,65.50
2019-03-24T06:36:25.309Z,67.00
2019-03-24T06:37:25.491Z,68.50
2019-03-24T06:38:25.678Z,69.10
2019-03-24T06:39:25.858Z,72.40
2019-03-24T06:40:26.040Z,63.90
2019-03-24T06:41:26.225Z,66.90
2019-03-24T06:42:26.409Z,67.20
2019-03-24T06:43:26.604Z,65.60
2019-03-24T06:44:26.797Z,61.00
2019-03-24T06:45:28.793Z,66.70
2019-03-24T06:46:27.168Z,68.80
2019-03-24T06:47:27.349Z,66.70
2019-03-24T06:48:27.540Z,62.00
2019-03-24T06:49:27.724Z,66.40
2019-03-24T06:50:27.907Z,61.90
2019-03-24T06:51:28.095Z,67.10
2019-03-24T06:52:28.286Z,61.90
2019-03-24T06:53:28.472Z,59.70
2019-03-24T06:54:28.649Z,65.30
2019-03-24T06:55:28.838Z,60.60
2019-03-24T06:56:29.019Z,70.00
2019-03-24T06:57:29.209Z,63.90
2019-03-24T06:58:29.392Z,61.70
2019-03-24T06:59:29.575Z,59.30
2019-03-24T07:00:29.761Z,66.20
2019-03-24T07:01:29.943Z,60.10
2019-03-24T07:02:30.126Z,59.70
2019-03-24T07:03:32.636Z,56.70
2019-03-24T07:04:30.498Z,63.10
2019-03-24T07:05:30.683Z,59.90
2019-03-24T07:06:30.871Z,60.40
2019-03-24T07:07:31.057Z,63.80
2019-03-24T07:08:31.246Z,59.50
2019-03-24T07:09:31.426Z,64.20
2019-03-24T07:10:31.615Z,54.50
2019-03-24T07:11:31.796Z,61.80
2019-03-24T07:12:31.986Z,62.10
2019-03-24T07:13:32.165Z,61.20
2019-03-24T07:14:32.349Z,56.90
2019-03-24T07:15:32.532Z,56.90
2019-03-24T07:16:32.720Z,52.30
2019-03-24T07:17:32.906Z,62.50
2019-03-24T07:18:33.089Z,57.10
2019-03-24T07:19:33.285Z,61.90
2019-03-24T07:20:33.467Z,57.30
2019-03-24T07:21:33.642Z,56.30
2019-03-24T07:22:33.839Z,55.10
2019-03-24T07:23:34.023Z,54.60
2019-03-24T07:24:34.209Z,53.00
2019-03-24T07:25:34.397Z,57.40
2019-03-24T07:26:34.582Z,50.80
2019-03-24T07:27:34.763Z,47.90
2019-03-24T07:28:34.948Z,50.30
2019-03-24T07:29:35.139Z,53.90
2019-03-24T07:30:35.328Z,50.60
2019-03-24T07:31:35.514Z,51.30
2019-03-24T07:32:35.711Z,49.30
2019-03-24T07:33:35.896Z,49.40
2019-03-24T07:34:36.091Z,48.60
2019-03-24T07:35:36.275Z,49.00
2019-03-24T07:36:36.459Z,50.80
2019-03-24T07:37:36.644Z,49.70
2019-03-24T07:38:36.830Z,51.60
2019-03-24T07:39:37.020Z,51.40
2019-03-24T07:40:37.207Z,52.40
2019-03-24T07:41:37.387Z,46.30
2019-03-24T07:42:37.585Z,48.50
2019-03-24T07:43:37.767Z,46.70
2019-03-24T07:44:37.951Z,52.30
2019-03-24T07:45:38.144Z,50.00
2019-03-24T07:46:38.328Z,48.20
2019-03-24T07:47:38.515Z,52.70
2019-03-24T07:48:38.717Z,47.50
2019-03-24T07:49:38.901Z,51.80
2019-03-24T07:50:39.088Z,50.00
2019-03-24T07:51:39.270Z,48.30
2019-03-24T07:52:39.457Z,47.20
2019-03-24T07:53:39.650Z,45.60
2019-03-24T07:54:39.841Z,48.90
2019-03-24T07:55:40.031Z,47.50
2019-03-24T07:56:40.215Z,46.30
2019-03-24T07:57:40.409Z,53.10
2019-03-24T07:58:40.601Z,43.50
2019-03-24T07:59:40.780Z,47.50
2019-03-24T08:00:40.968Z,40.20
2019-03-24T08:01:41.165Z,43.20
2019-03-24T08:02:50.693Z,49.40
2019-03-24T08:03:41.551Z,44.80
2019-03-24T08:04:41.749Z,44.20
2019-03-24T08:05:41.924Z,44.60
2019-03-24T08:06:42.106Z,42.60
2019-03-24T08:07:42.291Z,45.50
2019-03-24T08:08:44.510Z,46.80
2019-03-24T08:09:42.664Z,39.40
2019-03-24T08:10:42.854Z,43.70
2019-03-24T08:11:43.044Z,44.00
2019-03-24T08:12:43.235Z,47.30
2019-03-24T08:13:53.378Z,42.70
2019-03-24T08:14:43.593Z,42.90
2019-03-24T08:15:43.790Z,44.40
2019-03-24T08:16:43.979Z,40.40
2019-03-24T08:17:44.170Z,39.80
2019-03-24T08:18:44.357Z,41.10
2019-03-24T08:19:44.541Z,41.10
2019-03-24T08:20:44.730Z,42.80
2019-03-24T08:21:44.912Z,45.10
2019-03-24T08:22:45.107Z,40.20
2019-03-24T08:23:45.303Z,43.40
2019-03-24T08:24:45.490Z,42.50
2019-03-24T08:25:45.693Z,39.20
2019-03-24T08:26:45.871Z,44.50
2019-03-24T08:27:46.060Z,41.90
2019-03-24T08:28:46.241Z,43.60
2019-03-24T08:29:46.433Z,43.00
2019-03-24T08:30:46.625Z,42.70
2019-03-24T08:31:46.807Z,42.10
2019-03-24T08:32:46.998Z,44.10
2019-03-24T08:33:47.188Z,43.20
2019-03-24T08:34:48.408Z,44.50
2019-03-24T08:35:47.569Z,40.10
2019-03-24T08:36:47.744Z,39.50
2019-03-24T08:37:47.943Z,44.90
2019-03-24T08:38:48.123Z,42.70
2019-03-24T08:39:48.319Z,41.90
2019-03-24T08:40:48.503Z,40.10
2019-03-24T08:41:48.691Z,38.50
2019-03-24T08:42:48.876Z,45.70
2019-03-24T08:43:49.061Z,41.60
2019-03-24T08:44:49.250Z,42.90
2019-03-24T08:45:49.430Z,41.50
2019-03-24T08:46:49.626Z,39.40
2019-03-24T08:47:49.808Z,39.10
2019-03-24T08:48:49.997Z,41.90
2019-03-24T08:49:50.194Z,37.90
2019-03-24T08:50:50.386Z,40.40
2019-03-24T08:51:51.306Z,44.30
2019-03-24T08:52:50.778Z,46.70
2019-03-24T08:53:50.960Z,41.70
2019-03-24T08:54:51.149Z,44.50
2019-03-24T08:55:51.339Z,44.00
2019-03-24T08:56:51.524Z,42.20
2019-03-24T08:57:51.711Z,45.30
2019-03-24T08:58:51.909Z,39.50
2019-03-24T08:59:52.087Z,40.30
2019-03-24T09:00:52.304Z,41.70
2019-03-24T09:01:52.508Z,42.30
2019-03-24T09:02:52.694Z,43.50
2019-03-24T09:03:52.895Z,44.10
2019-03-24T09:04:53.080Z,41.70
2019-03-24T09:05:53.269Z,45.50
2019-03-24T09:06:53.457Z,44.80
2019-03-24T09:07:53.642Z,45.30
2019-03-24T09:08:53.839Z,47.20
2019-03-24T09:09:54.059Z,43.20
2019-03-24T09:10:54.235Z,42.50
2019-03-24T09:11:54.433Z,42.90
2019-03-24T09:12:54.634Z,45.90
2019-03-24T09:13:54.811Z,40.70
2019-03-24T09:14:55.003Z,41.50
2019-03-24T09:15:55.195Z,43.30
2019-03-24T09:16:55.384Z,44.50
2019-03-24T09:17:55.587Z,43.80
2019-03-24T09:18:55.782Z,44.60
2019-03-24T09:19:55.968Z,46.60
2019-03-24T09:20:56.151Z,44.20
2019-03-24T09:21:56.344Z,43.90
2019-03-24T09:22:56.531Z,41.30
2019-03-24T09:23:56.718Z,43.10
2019-03-24T09:24:56.910Z,43.00
2019-03-24T09:25:57.098Z,42.80
2019-03-24T09:26:57.285Z,41.40
2019-03-24T09:27:57.480Z,43.10
2019-03-24T09:28:59.317Z,45.60
2019-03-24T09:29:57.863Z,39.50
2019-03-24T09:30:58.051Z,44.40
2019-03-24T09:31:58.239Z,42.30
2019-03-24T09:32:58.432Z,42.50
2019-03-24T09:33:58.624Z,42.20
2019-03-24T09:34:58.808Z,43.40
2019-03-24T09:35:58.998Z,46.10
2019-03-24T09:36:59.196Z,44.80
2019-03-24T09:37:59.381Z,42.50
2019-03-24T09:38:59.577Z,42.10
2019-03-24T09:39:59.768Z,39.00
2019-03-24T09:40:59.973Z,40.00
2019-03-24T09:42:00.168Z,39.30
2019-03-24T09:43:00.364Z,44.80
2019-03-24T09:44:00.546Z,38.20
2019-03-24T09:45:00.750Z,40.70
2019-03-24T09:46:00.931Z,40.40
2019-03-24T09:47:01.120Z,39.40
2019-03-24T09:48:01.306Z,39.20
2019-03-24T09:49:03.295Z,42.60
2019-03-24T09:50:01.682Z,44.80
2019-03-24T09:51:01.891Z,37.40
2019-03-24T09:52:02.083Z,36.90
2019-03-24T09:53:02.271Z,38.90
2019-03-24T09:54:02.462Z,40.40
2019-03-24T09:55:02.653Z,40.20
2019-03-24T09:56:02.838Z,38.40
2019-03-24T09:57:03.048Z,37.50
2019-03-24T09:58:03.237Z,36.70
2019-03-24T09:59:03.424Z,37.40
2019-03-24T10:00:03.621Z,38.00
2019-03-24T10:01:03.824Z,35.10
2019-03-24T10:02:04.007Z,39.50
2019-03-24T10:03:04.207Z,36.10
2019-03-24T10:04:04.441Z,35.50
2019-03-24T10:05:04.598Z,33.30
2019-03-24T10:06:04.797Z,34.70
2019-03-24T10:07:04.975Z,35.10
2019-03-24T10:08:05.175Z,33.50
2019-03-24T10:09:05.380Z,32.40
2019-03-24T10:10:05.564Z,31.40
2019-03-24T10:11:05.772Z,32.90
2019-03-24T10:12:05.981Z,32.60
2019-03-24T10:13:06.180Z,32.40
2019-03-24T10:14:06.392Z,34.80
2019-03-24T10:15:06.599Z,34.50
2019-03-24T10:16:06.785Z,30.50
2019-03-24T10:17:06.992Z,33.40
2019-03-24T10:18:07.188Z,30.00
2019-03-24T10:19:13.888Z,28.70
2019-03-24T10:20:07.597Z,30.80
2019-03-24T10:21:07.777Z,28.50
2019-03-24T10:22:07.989Z,29.20
2019-03-24T10:23:08.185Z,29.40
2019-03-24T10:24:08.371Z,29.90
2019-03-24T10:25:08.584Z,27.20
2019-03-24T10:26:08.792Z,28.70
2019-03-24T10:27:09.001Z,27.80
2019-03-24T10:28:09.202Z,26.40
2019-03-24T10:29:09.406Z,28.20
2019-03-24T10:30:09.609Z,27.30
2019-03-24T10:31:09.810Z,28.90
2019-03-24T10:32:10.007Z,28.40
2019-03-24T10:33:10.201Z,28.50
2019-03-24T10:34:10.405Z,30.10
2019-03-24T10:35:10.607Z,28.90
2019-03-24T10:36:10.800Z,29.90
2019-03-24T10:37:11.006Z,30.50
2019-03-24T10:38:11.202Z,27.80
2019-03-24T10:39:11.404Z,27.80
2019-03-24T10:40:11.602Z,33.80
2019-03-24T10:41:11.796Z,29.30
2019-03-24T10:42:11.997Z,29.80
2019-03-24T10:43:12.191Z,30.40
2019-03-24T10:44:12.394Z,29.60
2019-03-24T10:45:12.598Z,27.40
2019-03-24T10:46:12.797Z,27.70
2019-03-24T10:47:12.996Z,28.40
2019-03-24T10:48:13.194Z,25.10
2019-03-24T10:49:24.115Z,29.60
2019-03-24T10:50:14.528Z,28.20
2019-03-24T10:51:13.782Z,29.30
2019-03-24T10:52:14.038Z,29.20
2019-03-24T10:53:14.204Z,29.20
2019-03-24T10:54:14.405Z,29.00
2019-03-24T10:55:14.599Z,29.30
2019-03-24T10:56:14.797Z,28.30
2019-03-24T10:57:15.006Z,27.80
2019-03-24T10:58:15.207Z,29.70
2019-03-24T10:59:15.414Z,32.70
2019-03-24T11:00:15.615Z,28.80
2019-03-24T11:01:15.809Z,31.50
2019-03-24T11:02:16.005Z,30.40
2019-03-24T11:03:16.205Z,31.50
2019-03-24T11:04:16.414Z,29.40
2019-03-24T11:05:16.620Z,33.40
2019-03-24T11:06:16.815Z,32.60
2019-03-24T11:07:17.009Z,35.80
2019-03-24T11:08:17.205Z,34.80
2019-03-24T11:09:17.395Z,36.30
2019-03-24T11:10:17.615Z,34.20
2019-03-24T11:11:17.797Z,41.70
2019-03-24T11:12:18.004Z,36.70
2019-03-24T11:13:18.197Z,40.20
2019-03-24T11:14:18.400Z,35.20
2019-03-24T11:15:18.605Z,36.50
2019-03-24T11:16:18.796Z,36.30
2019-03-24T11:17:18.989Z,39.60
2019-03-24T11:18:19.202Z,40.60
2019-03-24T11:19:19.394Z,41.30
2019-03-24T11:20:19.582Z,37.40
2019-03-24T11:21:19.790Z,37.60
2019-03-24T11:22:19.974Z,37.80
2019-03-24T11:23:20.164Z,40.10
2019-03-24T11:24:20.371Z,39.70
2019-03-24T11:25:20.566Z,37.10
2019-03-24T11:26:20.757Z,41.80
2019-03-24T11:27:20.961Z,39.80
2019-03-24T11:28:21.150Z,39.10
2019-03-24T11:29:21.341Z,39.00
2019-03-24T11:30:21.537Z,43.00
2019-03-24T11:31:21.720Z,39.30
2019-03-24T11:32:21.924Z,42.30
2019-03-24T11:33:22.113Z,43.70
2019-03-24T11:34:22.306Z,42.00
2019-03-24T11:35:22.495Z,39.00
2019-03-24T11:36:22.690Z,39.20
2019-03-24T11:37:22.891Z,41.40
2019-03-24T11:38:23.079Z,36.30
2019-03-24T11:39:23.290Z,37.30
2019-03-24T11:40:23.482Z,40.20
2019-03-24T11:41:23.673Z,38.00
2019-03-24T11:42:23.866Z,39.60
2019-03-24T11:43:24.060Z,35.60
2019-03-24T11:44:24.266Z,37.20
2019-03-24T11:45:24.470Z,41.80
2019-03-24T11:46:24.669Z,39.00
2019-03-24T11:47:26.776Z,37.90
2019-03-24T11:48:25.036Z,40.00
2019-03-24T11:49:25.224Z,39.40
2019-03-24T11:50:25.436Z,36.20
2019-03-24T11:51:25.620Z,41.50
2019-03-24T11:52:25.856Z,35.50
2019-03-24T11:53:26.062Z,37.40
2019-03-24T11:54:47.257Z,40.10
2019-03-24T11:55:26.436Z,37.10
2019-03-24T11:56:26.620Z,38.00
2019-03-24T11:57:26.813Z,36.30
2019-03-24T11:58:27.010Z,38.20
2019-03-24T11:59:27.207Z,34.80
2019-03-24T12:00:27.393Z,37.00
2019-03-24T12:01:37.774Z,35.10
2019-03-24T12:02:27.773Z,36.40
2019-03-24T12:03:28.011Z,39.20
2019-03-24T12:04:28.150Z,38.40
2019-03-24T12:05:28.344Z,35.60
2019-03-24T12:06:28.537Z,39.80
2019-03-24T12:07:28.718Z,35.30
2019-03-24T12:08:28.904Z,35.70
2019-03-24T12:09:29.091Z,37.10
2019-03-24T12:10:29.292Z,36.20
2019-03-24T12:11:29.472Z,36.40
2019-03-24T12:12:29.656Z,35.20
2019-03-24T12:13:29.855Z,34.40
2019-03-24T12:14:30.039Z,36.30
2019-03-24T12:15:30.227Z,32.20
2019-03-24T12:16:30.414Z,34.80
2019-03-24T12:17:30.598Z,32.90
2019-03-24T12:18:30.796Z,30.00
2019-03-24T12:19:30.994Z,35.60
2019-03-24T12:20:31.183Z,32.30
2019-03-24T12:21:31.386Z,33.20
2019-03-24T12:22:31.573Z,28.90
2019-03-24T12:23:31.763Z,32.50
2019-03-24T12:24:31.951Z,32.70
2019-03-24T12:25:32.154Z,31.40
2019-03-24T12:26:32.333Z,36.70
2019-03-24T12:27:32.524Z,32.70
2019-03-24T12:28:32.716Z,32.70
2019-03-24T12:29:32.914Z,32.60
2019-03-24T12:30:33.089Z,30.40
2019-03-24T12:31:33.276Z,29.70
2019-03-24T12:32:33.464Z,35.10
2019-03-24T12:33:33.657Z,31.00
2019-03-24T12:34:33.849Z,30.50
2019-03-24T12:35:34.033Z,34.00
2019-03-24T12:36:34.231Z,32.00
2019-03-24T12:37:34.423Z,30.50
2019-03-24T12:38:34.611Z,33.50
2019-03-24T12:39:34.793Z,31.50
2019-03-24T12:40:34.984Z,33.60
2019-03-24T12:41:35.190Z,34.40
2019-03-24T12:42:35.369Z,34.70
2019-03-24T12:43:35.558Z,33.00
2019-03-24T12:44:35.745Z,33.50
2019-03-24T12:45:35.941Z,34.00
2019-03-24T12:46:36.119Z,31.80
2019-03-24T12:47:36.306Z,36.60
2019-03-24T12:48:36.503Z,31.00
2019-03-24T12:49:36.692Z,33.70
2019-03-24T12:50:36.876Z,32.00
2019-03-24T12:51:37.064Z,33.30
2019-03-24T12:52:37.254Z,30.40